createdAt,value
2023-11-20T00:01:00.485Z,9.5
2023-11-20T00:01:59.254Z,9.5
2023-11-20T00:03:00.332Z,9.5
2023-11-20T00:03:59.200Z,9.5
2023-11-20T00:05:00.052Z,9.5
2023-11-20T00:05:58.718Z,9.5
2023-11-20T00:07:01.018Z,9.5
2023-11-20T00:07:59.740Z,9.5
2023-11-20T00:09:01.023Z,9.5
2023-11-20T00:09:59.777Z,9.5
2023-11-20T00:11:01.007Z,9.5
2023-11-20T00:11:59.662Z,9.5
2023-11-20T00:13:00.498Z,9.5
2023-11-20T00:13:59.182Z,9.5
2023-11-20T00:14:59.895Z,9.5
2023-11-20T00:16:01.149Z,9.5
2023-11-20T00:16:59.936Z,9.5
2023-11-20T00:17:59.040Z,9.5
2023-11-20T00:18:59.783Z,9.5
2023-11-20T00:20:01.085Z,9.5
2023-11-20T00:20:59.831Z,9.5
2023-11-20T00:22:00.985Z,9.5
2023-11-20T00:22:59.735Z,9.5
2023-11-20T00:24:00.985Z,9.5
2023-11-20T00:24:59.702Z,9.5
2023-11-20T00:26:01.005Z,9.5
2023-11-20T00:26:59.652Z,9.5
2023-11-20T00:28:00.413Z,9.5
2023-11-20T00:28:59.166Z,9.5
2023-11-20T00:29:59.797Z,9.5
2023-11-20T00:31:00.992Z,9.5
2023-11-20T00:31:59.769Z,9.5
2023-11-20T00:33:01.092Z,9.5
2023-11-20T00:33:59.860Z,9.5
2023-11-20T00:35:01.054Z,9.5
2023-11-20T00:35:59.733Z,9.5
2023-11-20T00:37:01.038Z,9.5
2023-11-20T00:37:59.838Z,9.5
2023-11-20T00:39:01.363Z,9.5
2023-11-20T00:40:00.006Z,9.5
2023-11-20T00:40:58.728Z,9.5
2023-11-20T00:42:00.991Z,9.5
2023-11-20T00:42:59.838Z,9.5
2023-11-20T00:44:00.977Z,9.5
2023-11-20T00:44:59.672Z,9.5
2023-11-20T00:46:00.415Z,9.5
2023-11-20T00:46:59.221Z,9.5
2023-11-20T00:48:00.108Z,9.5
2023-11-20T00:48:58.821Z,9.5
2023-11-20T00:50:00.965Z,9.5
2023-11-20T00:50:59.623Z,9.5
2023-11-20T00:52:00.404Z,9.5
2023-11-20T00:52:59.121Z,9.5
2023-11-20T00:53:59.749Z,9.5
2023-11-20T00:55:01.167Z,9.6
2023-11-20T00:56:02.675Z,9.5
2023-11-20T00:56:59.851Z,9.5
2023-11-20T00:58:01.048Z,9.6
2023-11-20T00:58:59.769Z,9.5
2023-11-20T01:00:00.958Z,9.5
2023-11-20T01:01:04.947Z,9.5
2023-11-20T01:02:00.171Z,9.5
2023-11-20T01:02:58.957Z,9.5
2023-11-20T01:03:59.992Z,9.5
2023-11-20T01:04:58.785Z,9.5
2023-11-20T01:06:06.193Z,9.5
2023-11-20T01:07:01.086Z,9.5
2023-11-20T01:07:59.828Z,9.5
2023-11-20T01:09:00.962Z,9.5
2023-11-20T01:09:59.661Z,9.5
2023-11-20T01:11:08.537Z,9.5
2023-11-20T01:12:00.306Z,9.5
2023-11-20T01:12:59.109Z,9.5
2023-11-20T01:13:59.858Z,9.5
2023-11-20T01:15:00.957Z,9.5
2023-11-20T01:16:10.656Z,9.5
2023-11-20T01:16:59.681Z,9.5
2023-11-20T01:18:00.476Z,9.5
2023-11-20T01:18:59.209Z,9.5
2023-11-20T01:19:59.895Z,9.5
2023-11-20T01:21:14.345Z,9.5
2023-11-20T01:22:00.080Z,9.5
2023-11-20T01:22:58.810Z,9.5
2023-11-20T01:24:00.952Z,9.5
2023-11-20T01:24:59.707Z,9.5
2023-11-20T01:26:16.611Z,9.5
2023-11-20T01:27:01.124Z,9.5
2023-11-20T01:27:59.837Z,9.5
2023-11-20T01:29:00.994Z,9.5
2023-11-20T01:29:59.647Z,9.5
2023-11-20T01:31:00.476Z,9.5
2023-11-20T01:31:59.302Z,9.5
2023-11-20T01:33:00.048Z,9.5
2023-11-20T01:33:58.800Z,9.5
2023-11-20T01:35:01.025Z,9.5
2023-11-20T01:35:59.700Z,9.5
2023-11-20T01:37:01.118Z,9.5
2023-11-20T01:37:59.920Z,9.5
2023-11-20T01:39:01.059Z,9.5
2023-11-20T01:39:59.725Z,9.5
2023-11-20T01:41:01.077Z,9.5
2023-11-20T01:41:59.839Z,9.5
2023-11-20T01:43:01.150Z,9.5
2023-11-20T01:43:59.740Z,9.5
2023-11-20T01:45:01.004Z,9.5
2023-11-20T01:45:59.755Z,9.5
2023-11-20T01:47:00.998Z,9.5
2023-11-20T01:47:59.802Z,9.5
2023-11-20T01:49:00.987Z,9.5
2023-11-20T01:49:59.846Z,9.5
2023-11-20T01:51:01.041Z,9.5
2023-11-20T01:51:59.827Z,9.5
2023-11-20T01:53:01.061Z,9.5
2023-11-20T01:53:59.819Z,9.5
2023-11-20T01:55:01.116Z,9.5
2023-11-20T01:55:59.919Z,9.5
2023-11-20T01:57:00.977Z,9.5
2023-11-20T01:57:59.947Z,9.5
2023-11-20T01:58:58.617Z,9.5
2023-11-20T02:00:00.610Z,9.5
2023-11-20T02:00:59.485Z,9.5
2023-11-20T02:02:00.323Z,9.5
2023-11-20T02:02:59.228Z,9.5
2023-11-20T02:04:00.253Z,9.5
2023-11-20T02:04:59.071Z,9.5
2023-11-20T02:05:59.799Z,9.5
2023-11-20T02:07:01.387Z,9.5
2023-11-20T02:08:00.118Z,9.5
2023-11-20T02:08:58.889Z,9.5
2023-11-20T02:10:01.105Z,9.5
2023-11-20T02:10:59.813Z,9.5
2023-11-20T02:12:01.090Z,9.5
2023-11-20T02:12:59.913Z,9.5
2023-11-20T02:13:58.858Z,9.5
2023-11-20T02:15:00.984Z,9.5
2023-11-20T02:15:59.712Z,9.5
2023-11-20T02:17:01.151Z,9.5
2023-11-20T02:17:59.951Z,9.5
2023-11-20T02:18:58.685Z,9.5
2023-11-20T02:20:01.037Z,9.5
2023-11-20T02:20:59.769Z,9.5
2023-11-20T02:22:01.063Z,9.5
2023-11-20T02:22:59.800Z,9.5
2023-11-20T02:24:01.057Z,9.5
2023-11-20T02:24:59.716Z,9.5
2023-11-20T02:26:01.430Z,9.5
2023-11-20T02:27:00.098Z,9.5
2023-11-20T02:27:58.774Z,9.5
2023-11-20T02:29:00.956Z,9.5
2023-11-20T02:29:59.618Z,9.5
2023-11-20T02:31:00.262Z,9.5
2023-11-20T02:31:58.970Z,9.5
2023-11-20T02:32:59.718Z,9.5
2023-11-20T02:34:00.993Z,9.5
2023-11-20T02:34:59.755Z,9.5
2023-11-20T02:36:01.006Z,9.5
2023-11-20T02:36:59.772Z,9.5
2023-11-20T02:38:01.052Z,9.5
2023-11-20T02:38:59.805Z,9.5
2023-11-20T02:40:01.168Z,9.5
2023-11-20T02:40:59.898Z,9.5
2023-11-20T02:42:00.618Z,9.5
2023-11-20T02:42:59.317Z,9.5
2023-11-20T02:44:00.172Z,9.5
2023-11-20T02:44:58.904Z,9.5
2023-11-20T02:46:00.993Z,9.5
2023-11-20T02:47:00.868Z,9.5
2023-11-20T02:47:59.549Z,9.5
2023-11-20T02:49:00.364Z,9.5
2023-11-20T02:49:59.137Z,9.5
2023-11-20T02:50:59.875Z,9.5
2023-11-20T02:52:03.945Z,9.5
2023-11-20T02:53:01.021Z,9.5
2023-11-20T02:54:00.039Z,9.5
2023-11-20T02:54:58.797Z,9.5
2023-11-20T02:56:01.251Z,9.5
2023-11-20T02:57:05.920Z,9.5
2023-11-20T02:58:01.084Z,9.5
2023-11-20T02:58:59.605Z,9.5
2023-11-20T03:00:00.965Z,9.5
2023-11-20T03:00:59.686Z,9.5
2023-11-20T03:02:09.615Z,9.5
2023-11-20T03:03:01.176Z,9.5
2023-11-20T03:04:07.174Z,9.4
2023-11-20T03:04:59.951Z,9.4
2023-11-20T03:05:58.641Z,9.5
2023-11-20T03:07:11.752Z,9.4
2023-11-20T03:08:00.385Z,9.4
2023-11-20T03:08:59.047Z,9.5
2023-11-20T03:09:59.809Z,9.4
2023-11-20T03:11:01.049Z,9.4
2023-11-20T03:12:14.541Z,9.4
2023-11-20T03:13:00.191Z,9.4
2023-11-20T03:13:58.891Z,9.4
2023-11-20T03:14:59.635Z,9.4
2023-11-20T03:16:00.555Z,9.4
2023-11-20T03:16:59.410Z,9.4
2023-11-20T03:18:00.201Z,9.4
2023-11-20T03:18:58.939Z,9.4
2023-11-20T03:19:59.657Z,9.4
2023-11-20T03:21:00.371Z,9.4
2023-11-20T03:21:59.066Z,9.4
2023-11-20T03:22:59.762Z,9.4
2023-11-20T03:24:01.009Z,9.4
2023-11-20T03:24:59.735Z,9.4
2023-11-20T03:26:01.024Z,9.4
2023-11-20T03:26:59.701Z,9.4
2023-11-20T03:28:01.102Z,9.4
2023-11-20T03:29:00.221Z,9.4
2023-11-20T03:29:58.900Z,9.4
2023-11-20T03:31:01.180Z,9.4
2023-11-20T03:31:59.979Z,9.4
2023-11-20T03:32:58.705Z,9.4
2023-11-20T03:34:01.012Z,9.4
2023-11-20T03:34:59.864Z,9.4
2023-11-20T03:36:01.367Z,9.4
2023-11-20T03:37:00.094Z,9.4
2023-11-20T03:37:58.832Z,9.3
2023-11-20T03:39:01.029Z,9.4
2023-11-20T03:39:59.797Z,9.4
2023-11-20T03:41:01.400Z,9.3
2023-11-20T03:42:00.008Z,9.4
2023-11-20T03:42:58.684Z,9.3
2023-11-20T03:44:01.049Z,9.4
2023-11-20T03:44:59.832Z,9.4
2023-11-20T03:46:01.163Z,9.4
2023-11-20T03:46:59.863Z,9.4
2023-11-20T03:48:01.149Z,9.4
2023-11-20T03:49:00.816Z,9.4
2023-11-20T03:49:59.527Z,9.4
2023-11-20T03:51:00.241Z,9.3
2023-11-20T03:51:58.953Z,9.3
2023-11-20T03:52:59.691Z,9.3
2023-11-20T03:54:00.998Z,9.4
2023-11-20T03:55:00.103Z,9.3
2023-11-20T03:55:58.800Z,9.4
2023-11-20T03:57:01.012Z,9.4
2023-11-20T03:57:59.865Z,9.3
2023-11-20T03:59:01.099Z,9.3
2023-11-20T03:59:59.738Z,9.4
2023-11-20T04:01:00.986Z,9.4
2023-11-20T04:01:59.727Z,9.3
2023-11-20T04:03:01.014Z,9.3
2023-11-20T04:03:59.784Z,9.3
2023-11-20T04:05:01.437Z,9.3
2023-11-20T04:05:59.947Z,9.3
2023-11-20T04:06:58.722Z,9.3
2023-11-20T04:08:00.962Z,9.3
2023-11-20T04:08:59.747Z,9.3
2023-11-20T04:10:00.967Z,9.3
2023-11-20T04:10:59.657Z,9.3
2023-11-20T04:12:00.395Z,9.3
2023-11-20T04:12:59.082Z,9.3
2023-11-20T04:13:59.791Z,9.3
2023-11-20T04:14:58.784Z,9.3
2023-11-20T04:16:01.208Z,9.3
2023-11-20T04:17:01.085Z,9.3
2023-11-20T04:18:00.031Z,9.3
2023-11-20T04:18:59.026Z,9.3
2023-11-20T04:20:00.213Z,9.3
2023-11-20T04:20:59.429Z,9.3
2023-11-20T04:22:01.032Z,9.3
2023-11-20T04:23:00.518Z,9.3
2023-11-20T04:24:00.288Z,9.3
2023-11-20T04:24:59.058Z,9.3
2023-11-20T04:25:59.867Z,9.3
2023-11-20T04:27:00.957Z,9.3
2023-11-20T04:27:59.688Z,9.3
2023-11-20T04:29:00.978Z,9.3
2023-11-20T04:29:59.698Z,9.3
2023-11-20T04:31:01.082Z,9.3
2023-11-20T04:32:00.122Z,9.3
2023-11-20T04:33:01.301Z,9.3
2023-11-20T04:34:00.013Z,9.3
2023-11-20T04:34:58.718Z,9.3
2023-11-20T04:36:01.068Z,9.3
2023-11-20T04:36:59.749Z,9.3
2023-11-20T04:38:03.898Z,9.3
2023-11-20T04:39:00.956Z,9.3
2023-11-20T04:39:59.704Z,9.3
2023-11-20T04:41:00.954Z,9.3
2023-11-20T04:41:59.596Z,9.3
2023-11-20T04:43:05.811Z,9.3
2023-11-20T04:44:00.619Z,9.3
2023-11-20T04:44:59.315Z,9.3
2023-11-20T04:46:00.024Z,9.3
2023-11-20T04:46:58.815Z,9.3
2023-11-20T04:48:08.898Z,9.3
2023-11-20T04:49:04.504Z,9.3
2023-11-20T04:50:00.035Z,9.3
2023-11-20T04:50:58.802Z,9.3
2023-11-20T04:52:01.468Z,9.3
2023-11-20T04:53:11.713Z,9.3
2023-11-20T04:53:59.674Z,9.3
2023-11-20T04:55:01.034Z,9.3
2023-11-20T04:55:59.777Z,9.3
2023-11-20T04:57:00.993Z,9.3
2023-11-20T04:58:13.809Z,9.3
2023-11-20T04:58:59.679Z,9.3
2023-11-20T05:00:01.033Z,9.3
2023-11-20T05:00:59.844Z,9.3
2023-11-20T05:02:01.067Z,9.3
2023-11-20T05:02:59.888Z,9.3
2023-11-20T05:03:58.701Z,9.3
2023-11-20T05:05:00.962Z,9.3
2023-11-20T05:05:59.701Z,9.3
2023-11-20T05:07:01.087Z,9.3
2023-11-20T05:07:59.842Z,9.3
2023-11-20T05:09:00.966Z,9.3
2023-11-20T05:09:59.655Z,9.3
2023-11-20T05:11:00.349Z,9.3
2023-11-20T05:11:59.021Z,9.3
2023-11-20T05:12:59.770Z,9.3
2023-11-20T05:14:00.957Z,9.3
2023-11-20T05:14:59.796Z,9.3
2023-11-20T05:16:01.092Z,9.3
2023-11-20T05:16:59.891Z,9.3
2023-11-20T05:18:01.064Z,9.3
2023-11-20T05:18:59.801Z,9.3
2023-11-20T05:20:01.033Z,9.3
2023-11-20T05:20:59.697Z,9.3
2023-11-20T05:22:01.093Z,9.3
2023-11-20T05:22:59.863Z,9.3
2023-11-20T05:24:00.814Z,9.3
2023-11-20T05:24:59.518Z,9.3
2023-11-20T05:26:00.572Z,9.3
2023-11-20T05:26:59.233Z,9.3
2023-11-20T05:28:00.001Z,9.3
2023-11-20T05:28:58.738Z,9.3
2023-11-20T05:30:00.971Z,9.3
2023-11-20T05:30:59.726Z,9.3
2023-11-20T05:32:01.019Z,9.3
2023-11-20T05:33:00.930Z,9.3
2023-11-20T05:34:00.203Z,9.3
2023-11-20T05:34:59.694Z,9.3
2023-11-20T05:36:01.140Z,9.3
2023-11-20T05:36:59.807Z,9.3
2023-11-20T05:38:01.034Z,9.3
2023-11-20T05:38:59.702Z,9.3
2023-11-20T05:40:01.188Z,9.3
2023-11-20T05:40:59.940Z,9.3
2023-11-20T05:41:58.624Z,9.3
2023-11-20T05:43:00.421Z,9.3
2023-11-20T05:43:59.066Z,9.3
2023-11-20T05:45:00.333Z,9.3
2023-11-20T05:45:59.116Z,9.3
2023-11-20T05:46:59.848Z,9.3
2023-11-20T05:48:01.164Z,9.3
2023-11-20T05:48:59.917Z,9.3
2023-11-20T05:50:01.016Z,9.4
2023-11-20T05:50:59.860Z,9.4
2023-11-20T05:52:01.050Z,9.4
2023-11-20T05:52:59.684Z,9.4
2023-11-20T05:54:01.054Z,9.3
2023-11-20T05:55:00.054Z,9.4
2023-11-20T05:55:58.926Z,9.4
2023-11-20T05:57:01.081Z,9.4
2023-11-20T05:57:59.781Z,9.4
2023-11-20T05:59:03.383Z,9.4
2023-11-20T06:00:00.959Z,9.4
2023-11-20T06:00:59.723Z,9.4
2023-11-20T06:02:00.964Z,9.4
2023-11-20T06:02:59.718Z,9.4
2023-11-20T06:04:01.424Z,9.4
2023-11-20T06:05:00.386Z,9.4
2023-11-20T06:05:59.069Z,9.4
2023-11-20T06:07:00.447Z,9.4
2023-11-20T06:07:59.177Z,9.4
2023-11-20T06:08:59.898Z,9.4
2023-11-20T06:10:01.112Z,9.4
2023-11-20T06:10:59.771Z,9.4
2023-11-20T06:12:01.058Z,9.4
2023-11-20T06:12:59.988Z,9.5
2023-11-20T06:14:01.612Z,9.5
2023-11-20T06:15:00.203Z,9.5
2023-11-20T06:15:58.938Z,9.5
2023-11-20T06:16:59.630Z,9.5
2023-11-20T06:18:00.410Z,9.5
2023-11-20T06:19:04.210Z,9.5
2023-11-20T06:20:00.109Z,9.5
2023-11-20T06:20:58.789Z,9.5
2023-11-20T06:22:01.275Z,9.5
2023-11-20T06:22:59.993Z,9.5
2023-11-20T06:24:06.675Z,9.5
2023-11-20T06:24:59.704Z,9.5
2023-11-20T06:26:01.044Z,9.5
2023-11-20T06:26:59.781Z,9.5
2023-11-20T06:28:01.111Z,9.5
2023-11-20T06:29:08.568Z,9.5
2023-11-20T06:30:00.328Z,9.5
2023-11-20T06:30:59.064Z,9.5
2023-11-20T06:31:59.861Z,9.5
2023-11-20T06:33:01.236Z,9.5
2023-11-20T06:34:10.880Z,9.5
2023-11-20T06:34:59.904Z,9.5
2023-11-20T06:36:01.040Z,9.5
2023-11-20T06:36:59.905Z,9.5
2023-11-20T06:38:01.101Z,9.5
2023-11-20T06:39:14.297Z,9.5
2023-11-20T06:39:59.874Z,9.5
2023-11-20T06:41:01.071Z,9.5
2023-11-20T06:41:59.936Z,9.5
2023-11-20T06:42:58.711Z,9.5
2023-11-20T06:44:16.531Z,9.5
2023-11-20T06:45:01.169Z,9.5
2023-11-20T06:45:59.912Z,9.5
2023-11-20T06:47:01.031Z,9.6
2023-11-20T06:47:59.780Z,9.6
2023-11-20T06:49:00.996Z,9.6
2023-11-20T06:49:59.773Z,9.5
2023-11-20T06:51:01.002Z,9.6
2023-11-20T06:51:59.888Z,9.6
2023-11-20T06:53:01.219Z,9.6
2023-11-20T06:54:00.217Z,9.6
2023-11-20T06:54:58.888Z,9.6
2023-11-20T06:56:01.059Z,9.6
2023-11-20T06:56:59.723Z,9.6
2023-11-20T06:58:01.074Z,9.6
2023-11-20T06:58:59.720Z,9.6
2023-11-20T07:00:01.060Z,9.6
2023-11-20T07:01:00.704Z,9.6
2023-11-20T07:02:00.276Z,9.6
2023-11-20T07:02:58.984Z,9.6
2023-11-20T07:03:59.925Z,9.6
2023-11-20T07:04:59.139Z,9.6
2023-11-20T07:05:59.888Z,9.6
2023-11-20T07:07:01.037Z,9.6
2023-11-20T07:07:59.855Z,9.6
2023-11-20T07:09:01.184Z,9.6
2023-11-20T07:09:59.901Z,9.6
2023-11-20T07:11:01.077Z,9.6
2023-11-20T07:11:59.690Z,9.6
2023-11-20T07:13:00.454Z,9.6
2023-11-20T07:13:59.199Z,9.7
2023-11-20T07:14:59.949Z,9.7
2023-11-20T07:15:58.772Z,9.7
2023-11-20T07:17:01.024Z,9.8
2023-11-20T07:18:00.169Z,9.8
2023-11-20T07:18:59.634Z,9.8
2023-11-20T07:20:01.002Z,9.8
2023-11-20T07:20:59.779Z,9.8
2023-11-20T07:22:01.031Z,9.8
2023-11-20T07:22:59.836Z,9.8
2023-11-20T07:24:01.094Z,9.9
2023-11-20T07:25:00.420Z,9.9
2023-11-20T07:25:59.167Z,9.9
2023-11-20T07:26:59.903Z,9.9
2023-11-20T07:28:01.370Z,9.9
2023-11-20T07:29:00.113Z,9.9
2023-11-20T07:29:58.800Z,9.9
2023-11-20T07:31:01.031Z,9.9
2023-11-20T07:31:59.853Z,9.9
2023-11-20T07:33:01.167Z,10
2023-11-20T07:34:00.010Z,10
2023-11-20T07:34:58.694Z,9.9
2023-11-20T07:36:01.383Z,10
2023-11-20T07:37:00.084Z,10
2023-11-20T07:37:58.836Z,10
2023-11-20T07:39:01.062Z,10
2023-11-20T07:39:59.795Z,10
2023-11-20T07:41:01.018Z,10
2023-11-20T07:41:59.679Z,10
2023-11-20T07:43:00.449Z,10
2023-11-20T07:43:59.815Z,10
2023-11-20T07:45:01.194Z,10
2023-11-20T07:45:59.981Z,10
2023-11-20T07:46:58.761Z,10
2023-11-20T07:48:01.447Z,10
2023-11-20T07:49:00.320Z,10
2023-11-20T07:49:59.034Z,10
2023-11-20T07:50:59.744Z,10
2023-11-20T07:52:01.043Z,10
2023-11-20T07:52:59.773Z,10
2023-11-20T07:54:01.013Z,10
2023-11-20T07:55:02.267Z,10
2023-11-20T07:55:59.668Z,10
2023-11-20T07:57:00.390Z,10
2023-11-20T07:57:59.317Z,10
2023-11-20T07:59:00.000Z,10
2023-11-20T08:00:05.854Z,10
2023-11-20T08:00:59.712Z,10
2023-11-20T08:02:01.045Z,10
2023-11-20T08:02:59.836Z,10
2023-11-20T08:04:01.205Z,10
2023-11-20T08:05:09.898Z,10
2023-11-20T08:06:09.168Z,10
2023-11-20T08:07:00.270Z,10
2023-11-20T08:07:58.975Z,10
2023-11-20T08:08:59.647Z,10
2023-11-20T08:10:10.639Z,10
2023-11-20T08:11:01.394Z,10
2023-11-20T08:12:00.041Z,10
2023-11-20T08:12:58.784Z,10
2023-11-20T08:14:01.048Z,10
2023-11-20T08:15:14.128Z,10
2023-11-20T08:15:59.855Z,10
2023-11-20T08:17:01.394Z,10
2023-11-20T08:18:00.138Z,10
2023-11-20T08:18:58.967Z,10
2023-11-20T08:19:59.719Z,10
2023-11-20T08:21:00.972Z,10
2023-11-20T08:21:59.667Z,10
2023-11-20T08:23:00.373Z,10
2023-11-20T08:23:59.117Z,10
2023-11-20T08:24:59.805Z,10
2023-11-20T08:26:01.006Z,10
2023-11-20T08:27:00.035Z,10
2023-11-20T08:27:58.788Z,10
2023-11-20T08:29:01.099Z,10
2023-11-20T08:29:59.786Z,10
2023-11-20T08:31:01.672Z,10
2023-11-20T08:32:01.465Z,10
2023-11-20T08:33:00.275Z,10
2023-11-20T08:33:59.035Z,10
2023-11-20T08:34:59.813Z,10
2023-11-20T08:36:01.098Z,10
2023-11-20T08:36:59.881Z,10
2023-11-20T08:38:00.997Z,10
2023-11-20T08:38:59.860Z,10
2023-11-20T08:40:01.061Z,10
2023-11-20T08:40:59.930Z,10
2023-11-20T08:42:01.000Z,10
2023-11-20T08:42:59.786Z,10
2023-11-20T08:44:00.960Z,10
2023-11-20T08:44:59.685Z,10
2023-11-20T08:46:09.099Z,10
2023-11-20T08:47:01.198Z,10
2023-11-20T08:47:59.786Z,10
2023-11-20T08:49:01.257Z,10
2023-11-20T08:50:00.042Z,10
2023-11-20T08:50:59.337Z,10
2023-11-20T08:52:04.801Z,10
2023-11-20T08:53:00.290Z,10.1
2023-11-20T08:53:59.220Z,10.1
2023-11-20T08:54:59.994Z,10.1
2023-11-20T08:55:58.738Z,10.1
2023-11-20T08:57:01.141Z,10.1
2023-11-20T08:58:00.027Z,10.1
2023-11-20T08:58:58.809Z,10.1
2023-11-20T09:00:01.025Z,10.1
2023-11-20T09:00:59.802Z,10.1
2023-11-20T09:02:01.113Z,10.1
2023-11-20T09:02:59.894Z,10.1
2023-11-20T09:03:58.715Z,10.1
2023-11-20T09:05:01.449Z,10.1
2023-11-20T09:05:59.909Z,10.1
2023-11-20T09:07:01.016Z,10.1
2023-11-20T09:07:59.768Z,10.1
2023-11-20T09:09:01.071Z,10.1
2023-11-20T09:09:59.876Z,10.1
2023-11-20T09:11:01.397Z,10.1
2023-11-20T09:11:59.650Z,10.1
2023-11-20T09:13:00.404Z,10.1
2023-11-20T09:13:59.108Z,10.1
2023-11-20T09:14:59.880Z,10.1
2023-11-20T09:16:01.089Z,10.1
2023-11-20T09:16:59.910Z,10.1
2023-11-20T09:18:01.063Z,10.1
2023-11-20T09:19:00.088Z,10.1
2023-11-20T09:19:58.977Z,10.1
2023-11-20T09:20:59.635Z,10.1
2023-11-20T09:22:00.357Z,10.1
2023-11-20T09:22:59.115Z,10.1
2023-11-20T09:23:59.844Z,10.1
2023-11-20T09:25:05.393Z,10.1
2023-11-20T09:26:00.054Z,10.1
2023-11-20T09:26:58.715Z,10.1
2023-11-20T09:28:01.037Z,10.1
2023-11-20T09:28:59.759Z,10.1
2023-11-20T09:30:01.004Z,10.2
2023-11-20T09:30:59.813Z,10.1
2023-11-20T09:32:00.986Z,10.1
2023-11-20T09:32:59.722Z,10.1
2023-11-20T09:34:01.240Z,10.2
2023-11-20T09:34:59.904Z,10.1
2023-11-20T09:36:02.560Z,10.2
2023-11-20T09:37:01.260Z,10.1
2023-11-20T09:38:00.032Z,10.1
2023-11-20T09:38:58.917Z,10.1
2023-11-20T09:40:01.113Z,10.1
2023-11-20T09:41:05.645Z,10.2
2023-11-20T09:42:00.388Z,10.2
2023-11-20T09:42:59.070Z,10.1
2023-11-20T09:43:59.752Z,10.1
2023-11-20T09:45:00.989Z,10.2
2023-11-20T09:46:07.824Z,10.2
2023-11-20T09:47:02.097Z,10.2
2023-11-20T09:47:59.979Z,10.2
2023-11-20T09:48:58.720Z,10.2
2023-11-20T09:50:01.081Z,10.3
2023-11-20T09:51:13.433Z,10.3
2023-11-20T09:52:00.016Z,10.3
2023-11-20T09:52:58.782Z,10.3
2023-11-20T09:54:01.065Z,10.3
2023-11-20T09:54:59.732Z,10.3
2023-11-20T09:56:10.660Z,10.3
2023-11-20T09:57:01.355Z,10.3
2023-11-20T09:58:00.002Z,10.3
2023-11-20T09:58:58.660Z,10.3
2023-11-20T10:00:00.423Z,10.3
2023-11-20T10:01:12.796Z,10.3
2023-11-20T10:01:59.695Z,10.3
2023-11-20T10:03:00.446Z,10.3
2023-11-20T10:03:59.285Z,10.3
2023-11-20T10:05:00.403Z,10.3
2023-11-20T10:07:00.152Z,10.3
2023-11-20T10:07:58.873Z,10.3
2023-11-20T10:09:01.141Z,10.4
2023-11-20T10:09:59.862Z,10.3
2023-11-20T10:11:15.688Z,10.4
2023-11-20T10:11:59.617Z,10.3
2023-11-20T10:13:00.385Z,10.4
2023-11-20T10:13:59.117Z,10.4
2023-11-20T10:14:59.845Z,10.4
2023-11-20T10:16:00.993Z,10.4
2023-11-20T10:16:59.778Z,10.5
2023-11-20T10:18:02.335Z,10.5
2023-11-20T10:19:01.098Z,10.5
2023-11-20T10:19:59.785Z,10.5
2023-11-20T10:21:01.041Z,10.5
2023-11-20T10:22:00.036Z,10.5
2023-11-20T10:22:58.732Z,10.5
2023-11-20T10:24:01.051Z,10.5
2023-11-20T10:24:59.833Z,10.5
2023-11-20T10:26:01.049Z,10.5
2023-11-20T10:26:59.726Z,10.5
2023-11-20T10:28:01.140Z,10.5
2023-11-20T10:28:59.944Z,10.5
2023-11-20T10:29:58.612Z,10.6
2023-11-20T10:31:00.387Z,10.6
2023-11-20T10:31:59.848Z,10.6
2023-11-20T10:32:58.877Z,10.6
2023-11-20T10:34:01.044Z,10.6
2023-11-20T10:34:59.766Z,10.6
2023-11-20T10:36:03.431Z,10.6
2023-11-20T10:37:01.202Z,10.6
2023-11-20T10:37:59.916Z,10.6
2023-11-20T10:39:01.050Z,10.6
2023-11-20T10:39:59.768Z,10.6
2023-11-20T10:41:01.075Z,10.6
2023-11-20T10:42:00.449Z,10.6
2023-11-20T10:42:59.322Z,10.6
2023-11-20T10:44:00.069Z,10.6
2023-11-20T10:44:58.840Z,10.6
2023-11-20T10:46:01.025Z,10.6
2023-11-20T10:46:59.740Z,10.6
2023-11-20T10:48:01.085Z,10.6
2023-11-20T10:48:59.948Z,10.6
2023-11-20T10:49:58.834Z,10.6
2023-11-20T10:51:00.958Z,10.6
2023-11-20T10:51:59.684Z,10.5
2023-11-20T10:53:01.032Z,10.5
2023-11-20T10:53:59.712Z,10.5
2023-11-20T10:55:01.074Z,10.5
2023-11-20T10:55:59.736Z,10.5
2023-11-20T10:57:01.075Z,10.5
2023-11-20T10:57:59.825Z,10.5
2023-11-20T10:59:01.063Z,10.5
2023-11-20T10:59:59.685Z,10.5
2023-11-20T11:01:01.063Z,10.5
2023-11-20T11:02:00.143Z,10.5
2023-11-20T11:03:07.614Z,10.5
2023-11-20T11:04:00.210Z,10.5
2023-11-20T11:04:59.138Z,10.5
2023-11-20T11:05:59.874Z,10.5
2023-11-20T11:07:01.043Z,10.5
2023-11-20T11:07:59.771Z,10.5
2023-11-20T11:09:01.021Z,10.5
2023-11-20T11:10:01.266Z,10.5
2023-11-20T11:10:59.702Z,10.5
2023-11-20T11:12:01.392Z,10.5
2023-11-20T11:13:00.091Z,10.5
2023-11-20T11:13:58.868Z,10.5
2023-11-20T11:15:01.131Z,10.5
2023-11-20T11:15:59.845Z,10.5
2023-11-20T11:17:01.086Z,10.5
2023-11-20T11:17:59.818Z,10.5
2023-11-20T11:19:01.067Z,10.5
2023-11-20T11:19:59.876Z,10.5
2023-11-20T11:21:00.970Z,10.5
2023-11-20T11:21:59.692Z,10.5
2023-11-20T11:23:01.096Z,10.5
2023-11-20T11:23:59.786Z,10.5
2023-11-20T11:25:00.964Z,10.5
2023-11-20T11:25:59.700Z,10.5
2023-11-20T11:27:01.054Z,10.5
2023-11-20T11:27:59.878Z,10.5
2023-11-20T11:29:01.050Z,10.5
2023-11-20T11:29:59.816Z,10.5
2023-11-20T11:31:01.127Z,10.5
2023-11-20T11:32:01.099Z,10.5
2023-11-20T11:32:59.915Z,10.5
2023-11-20T11:33:58.658Z,10.5
2023-11-20T11:35:00.374Z,10.5
2023-11-20T11:35:59.024Z,10.5
2023-11-20T11:37:05.890Z,10.5
2023-11-20T11:38:00.252Z,10.5
2023-11-20T11:38:58.929Z,10.5
2023-11-20T11:40:01.091Z,10.5
2023-11-20T11:40:59.780Z,10.5
2023-11-20T11:42:08.777Z,10.5
2023-11-20T11:43:01.115Z,10.5
2023-11-20T11:43:59.912Z,10.5
2023-11-20T11:45:01.050Z,10.5
2023-11-20T11:45:59.850Z,10.5
2023-11-20T11:47:11.672Z,10.5
2023-11-20T11:48:01.093Z,10.5
2023-11-20T11:48:59.878Z,10.5
2023-11-20T11:50:00.981Z,10.5
2023-11-20T11:50:59.740Z,10.5
2023-11-20T11:52:13.654Z,10.5
2023-11-20T11:53:01.011Z,10.5
2023-11-20T11:53:59.660Z,10.5
2023-11-20T11:55:00.676Z,10.5
2023-11-20T11:56:01.052Z,10.5
2023-11-20T11:56:59.907Z,10.5
2023-11-20T11:58:01.069Z,10.5
2023-11-20T11:58:59.717Z,10.5
2023-11-20T12:00:00.964Z,10.5
2023-11-20T12:00:59.743Z,10.5
2023-11-20T12:02:01.064Z,10.5
2023-11-20T12:02:59.855Z,10.5
2023-11-20T12:04:01.585Z,10.5
2023-11-20T12:05:00.571Z,10.5
2023-11-20T12:05:59.378Z,10.5
2023-11-20T12:07:00.075Z,10.5
2023-11-20T12:07:58.833Z,10.5
2023-11-20T12:09:00.988Z,10.5
2023-11-20T12:09:59.760Z,10.5
2023-11-20T12:11:01.010Z,10.5
2023-11-20T12:11:59.909Z,10.5
2023-11-20T12:13:01.395Z,10.5
2023-11-20T12:14:00.135Z,10.5
2023-11-20T12:14:58.886Z,10.5
2023-11-20T12:16:01.261Z,10.5
2023-11-20T12:17:00.372Z,10.5
2023-11-20T12:17:59.260Z,10.5
2023-11-20T12:19:00.117Z,10.5
2023-11-20T12:19:58.795Z,10.5
2023-11-20T12:21:00.984Z,10.5
2023-11-20T12:21:59.667Z,10.5
2023-11-20T12:23:00.977Z,10.5
2023-11-20T12:23:59.649Z,10.5
2023-11-20T12:25:00.427Z,10.5
2023-11-20T12:25:59.168Z,10.5
2023-11-20T12:26:59.900Z,10.5
2023-11-20T12:28:01.435Z,10.5
2023-11-20T12:29:00.087Z,10.5
2023-11-20T12:29:59.024Z,10.5
2023-11-20T12:30:59.718Z,10.5
2023-11-20T12:32:03.819Z,10.5
2023-11-20T12:33:01.204Z,10.5
2023-11-20T12:33:59.970Z,10.5
2023-11-20T12:34:58.707Z,10.5
2023-11-20T12:36:01.266Z,10.5
2023-11-20T12:37:00.053Z,10.5
2023-11-20T12:37:58.829Z,10.5
2023-11-20T12:39:00.998Z,10.5
2023-11-20T12:39:59.719Z,10.5
2023-11-20T12:41:00.991Z,10.5
2023-11-20T12:41:59.675Z,10.5
2023-11-20T12:43:01.031Z,10.5
2023-11-20T12:43:59.837Z,10.5
2023-11-20T12:45:01.409Z,10.5
2023-11-20T12:46:00.167Z,10.5
2023-11-20T12:46:59.030Z,10.5
2023-11-20T12:47:59.882Z,10.5
2023-11-20T12:48:58.689Z,10.5
2023-11-20T12:50:01.079Z,10.5
2023-11-20T12:50:59.808Z,10.5
2023-11-20T12:52:01.078Z,10.5
2023-11-20T12:52:59.831Z,10.4
2023-11-20T12:54:01.082Z,10.4
2023-11-20T12:54:59.775Z,10.4
2023-11-20T12:56:00.980Z,10.4
2023-11-20T12:57:02.100Z,10.4
2023-11-20T12:58:00.280Z,10.4
2023-11-20T12:58:59.009Z,10.4
2023-11-20T12:59:59.813Z,10.4
2023-11-20T13:01:01.172Z,10.4
2023-11-20T13:02:00.142Z,10.4
2023-11-20T13:02:59.065Z,10.4
2023-11-20T13:04:00.244Z,10.4
2023-11-20T13:05:00.166Z,10.5
2023-11-20T13:05:59.017Z,10.4
2023-11-20T13:06:59.727Z,10.4
2023-11-20T13:08:00.977Z,10.4
2023-11-20T13:08:59.614Z,10.4
2023-11-20T13:10:00.542Z,10.4
2023-11-20T13:10:59.261Z,10.4
2023-11-20T13:12:00.118Z,10.4
2023-11-20T13:13:02.590Z,10.4
2023-11-20T13:14:01.011Z,10.4
2023-11-20T13:15:00.001Z,10.4
2023-11-20T13:16:00.313Z,10.4
2023-11-20T13:16:59.618Z,10.4
2023-11-20T13:18:04.714Z,10.4
2023-11-20T13:19:00.326Z,10.4
2023-11-20T13:19:58.990Z,10.4
2023-11-20T13:20:59.700Z,10.4
2023-11-20T13:22:01.057Z,10.4
2023-11-20T13:23:07.493Z,10.4
2023-11-20T13:23:59.716Z,10.3
2023-11-20T13:25:03.042Z,10.4
2023-11-20T13:25:59.948Z,10.4
2023-11-20T13:26:58.621Z,10.4
2023-11-20T13:28:09.567Z,10.3
2023-11-20T13:29:01.307Z,10.3
2023-11-20T13:30:00.006Z,10.3
2023-11-20T13:30:58.801Z,10.4
2023-11-20T13:32:01.510Z,10.3
2023-11-20T13:33:12.491Z,10.3
2023-11-20T13:33:59.803Z,10.3
2023-11-20T13:35:01.433Z,10.3
2023-11-20T13:36:00.128Z,10.3
2023-11-20T13:36:59.199Z,10.3
2023-11-20T13:38:15.274Z,10.3
2023-11-20T13:38:59.846Z,10.3
2023-11-20T13:40:01.359Z,10.3